Time;durP1;ratioP1;P1;durP2;ratioP2;P2;SDS_P1;SDS_P2;PMS_P1;PMS_P2;Temp;Humidity;BMP_temperature;BMP_pressure;BME280_temperature;BME280_humidity;BME280_pressure;Samples;Min_cycle;Max_cycle;Signal;HPM_P1;HPM_P2
2023/06/14 00:01:16;;;;;;;18.02;12.40;;;;;;;-142.57;100.00;115900.28;5018445;28;20034;-92
2023/06/14 00:03:44;;;;;;;20.27;13.70;;;;;;;-142.57;100.00;115900.28;5052996;28;20036;-93
2023/06/14 00:06:13;;;;;;;20.02;13.10;;;;;;;-142.57;100.00;115900.28;5033483;28;20051;-87
2023/06/14 00:08:40;;;;;;;20.48;12.90;;;;;;;-142.57;100.00;115900.28;5050187;28;20037;-91
2023/06/14 00:11:07;;;;;;;17.17;12.68;;;;;;;-142.57;100.00;115900.28;5049291;28;20071;-92
2023/06/14 00:13:36;;;;;;;23.48;13.35;;;;;;;-142.57;100.00;115900.28;5035075;28;20042;-88
2023/06/14 00:16:03;;;;;;;18.58;13.05;;;;;;;-142.57;100.00;115900.28;5049193;28;20040;-88
2023/06/14 00:18:29;;;;;;;19.20;13.60;;;;;;;-142.57;100.00;115900.28;5001274;28;20063;-92
2023/06/14 00:20:56;;;;;;;23.88;14.18;;;;;;;-142.57;100.00;115900.28;5037632;28;20041;-92
2023/06/14 00:23:35;;;;;;;21.50;13.88;;;;;;;-142.57;100.00;115900.28;5038531;28;20086;-91
2023/06/14 00:26:03;;;;;;;18.37;13.60;;;;;;;-142.57;100.00;115900.28;5055130;28;20043;-93
2023/06/14 00:28:29;;;;;;;21.50;12.90;;;;;;;-142.57;100.00;115900.28;5052938;28;20065;-94
2023/06/14 00:30:56;;;;;;;22.48;13.65;;;;;;;-142.57;100.00;115900.28;5053169;28;20029;-91
2023/06/14 00:33:21;;;;;;;19.58;13.10;;;;;;;-142.57;100.00;115900.28;5018673;28;20095;-94
2023/06/14 00:36:08;;;;;;;17.38;12.43;;;;;;;-142.57;100.00;115900.28;5035094;28;20045;-93
2023/06/14 00:38:40;;;;;;;19.90;14.23;;;;;;;-142.57;100.00;115900.28;5052471;28;20077;-93
2023/06/14 00:41:08;;;;;;;21.10;14.63;;;;;;;-142.57;100.00;115900.28;5004185;28;20105;-93
2023/06/14 00:43:38;;;;;;;24.15;16.10;;;;;;;-142.57;100.00;115900.28;5054039;28;20025;-92
2023/06/14 00:46:04;;;;;;;25.40;15.93;;;;;;;-142.57;100.00;115900.28;5004247;28;20025;-92
2023/06/14 00:48:32;;;;;;;22.58;17.20;;;;;;;-142.57;100.00;115900.28;5053966;28;20036;-94
2023/06/14 00:51:11;;;;;;;24.48;16.75;;;;;;;-142.57;100.00;115900.28;5037004;28;20044;-92
2023/06/14 00:53:39;;;;;;;27.08;15.50;;;;;;;-142.57;100.00;115900.28;5036219;28;20042;-93
2023/06/14 00:56:06;;;;;;;24.77;16.48;;;;;;;-142.57;100.00;115900.28;5054824;28;20073;-93
2023/06/14 00:58:32;;;;;;;24.60;16.63;;;;;;;-142.57;100.00;115900.28;5036609;28;20072;-90
2023/06/14 01:00:58;;;;;;;27.27;18.10;;;;;;;-142.57;100.00;115900.28;5036393;28;20041;-91
2023/06/14 01:03:23;;;;;;;25.10;17.77;;;;;;;-142.57;100.00;115900.28;5053646;28;20055;-93
2023/06/14 01:06:04;;;;;;;24.10;17.33;;;;;;;-142.57;100.00;115900.28;5054101;28;20099;-89
2023/06/14 01:09:05;;;;;;;26.40;15.98;;;;;;;-142.57;100.00;115900.28;5053849;28;20564;-92
2023/06/14 01:11:37;;;;;;;27.40;18.58;;;;;;;-142.57;100.00;115900.28;5023802;28;20030;-94
2023/06/14 01:14:05;;;;;;;15.25;11.80;;;;;;;-142.57;100.00;115900.28;5024301;28;20061;-91
2023/06/14 01:16:32;;;;;;;18.92;11.98;;;;;;;-142.57;100.00;115900.28;5023845;28;20029;-89
2023/06/14 01:18:59;;;;;;;14.70;9.73;;;;;;;-142.57;100.00;115900.28;5058113;28;20029;-92
2023/06/14 01:21:25;;;;;;;11.85;8.48;;;;;;;-142.57;100.00;115900.28;5024345;28;20033;-95
2023/06/14 01:23:52;;;;;;;12.10;8.63;;;;;;;-142.57;100.00;115900.28;5041048;28;20025;-90
2023/06/14 01:26:22;;;;;;;11.20;7.90;;;;;;;-142.57;100.00;115900.28;5040710;28;20098;-92
2023/06/14 01:28:52;;;;;;;14.13;8.82;;;;;;;-142.57;100.00;115900.28;5057741;28;20037;-92
2023/06/14 01:31:23;;;;;;;14.05;9.23;;;;;;;-142.57;100.00;115900.28;5010792;28;20018;-90
2023/06/14 01:34:09;;;;;;;21.77;10.23;;;;;;;-142.57;100.00;115900.28;5040763;28;20029;-90
2023/06/14 01:36:42;;;;;;;16.88;10.68;;;;;;;-142.57;100.00;115900.28;5058243;28;20040;-90
2023/06/14 01:39:13;;;;;;;20.95;12.32;;;;;;;-142.57;100.00;115900.28;5041760;28;20025;-91
2023/06/14 01:41:40;;;;;;;20.25;13.77;;;;;;;-142.57;100.00;115900.28;4995678;28;20021;-91
2023/06/14 01:44:09;;;;;;;21.45;13.88;;;;;;;-142.57;100.00;115900.28;5043795;28;20010;-91
2023/06/14 01:46:37;;;;;;;18.10;13.50;;;;;;;-142.57;100.00;115900.28;5060343;28;20034;-90
2023/06/14 01:49:03;;;;;;;22.75;13.65;;;;;;;-142.57;100.00;115900.28;5058414;28;20071;-90
2023/06/14 01:51:29;;;;;;;19.30;13.50;;;;;;;-142.57;100.00;115900.28;5058706;28;20017;-92
2023/06/14 01:53:57;;;;;;;28.35;14.75;;;;;;;-142.57;100.00;115900.28;5041320;28;20025;-94
2023/06/14 01:56:32;;;;;;;18.92;13.50;;;;;;;-142.57;100.00;115900.28;5024981;28;20060;-91
2023/06/14 01:58:59;;;;;;;18.90;12.95;;;;;;;-142.57;100.00;115900.28;5039984;28;20037;-89
2023/06/14 02:01:26;;;;;;;18.92;12.85;;;;;;;-142.57;100.00;115900.28;5038832;28;20021;-89
2023/06/14 02:03:55;;;;;;;16.85;12.80;;;;;;;-142.57;100.00;115900.28;5038726;28;20033;-88
2023/06/14 02:06:20;;;;;;;21.95;12.60;;;;;;;-142.57;100.00;115900.28;5057086;28;20030;-90
2023/06/14 02:08:46;;;;;;;18.60;12.40;;;;;;;-142.57;100.00;115900.28;5039194;28;20026;-88
2023/06/14 02:11:12;;;;;;;14.05;11.13;;;;;;;-142.57;100.00;115900.28;5038943;28;20068;-90
2023/06/14 02:13:37;;;;;;;15.27;10.93;;;;;;;-142.57;100.00;115900.28;5039706;28;20040;-94
2023/06/14 02:16:06;;;;;;;15.27;11.10;;;;;;;-142.57;100.00;115900.28;5034071;28;20061;-86
2023/06/14 02:18:37;;;;;;;15.80;11.40;;;;;;;-142.57;100.00;115900.28;5038601;28;20070;-91
2023/06/14 02:21:03;;;;;;;21.23;11.85;;;;;;;-142.57;100.00;115900.28;5039332;28;20136;-91
2023/06/14 02:23:35;;;;;;;18.23;11.23;;;;;;;-142.57;100.00;115900.28;5056703;28;20021;-92
2023/06/14 02:26:05;;;;;;;17.80;13.70;;;;;;;-142.57;100.00;115900.28;5040250;28;20016;-92
2023/06/14 02:28:35;;;;;;;18.90;11.20;;;;;;;-142.57;100.00;115900.28;5008691;28;20068;-93
2023/06/14 02:31:06;;;;;;;23.60;12.52;;;;;;;-142.57;100.00;115900.28;5039334;28;20052;-90
2023/06/14 02:33:32;;;;;;;20.73;11.73;;;;;;;-142.57;100.00;115900.28;5056216;28;20044;-90
2023/06/14 02:36:00;;;;;;;18.98;11.80;;;;;;;-142.57;100.00;115900.28;5055786;28;20029;-89
2023/06/14 02:38:26;;;;;;;20.40;12.95;;;;;;;-142.57;100.00;115900.28;5038348;28;20037;-91
2023/06/14 02:40:59;;;;;;;20.83;12.98;;;;;;;-142.57;100.00;115900.28;5034333;28;20041;-87
2023/06/14 02:43:27;;;;;;;18.60;13.85;;;;;;;-142.57;100.00;115900.28;5034050;28;20097;-88
2023/06/14 02:45:52;;;;;;;21.45;13.13;;;;;;;-142.57;100.00;115900.28;5001257;28;20060;-89
2023/06/14 02:48:19;;;;;;;19.58;12.75;;;;;;;-142.57;100.00;115900.28;5000549;28;20561;-88
2023/06/14 02:50:45;;;;;;;17.67;12.65;;;;;;;-142.57;100.00;115900.28;5033996;28;20048;-87
2023/06/14 02:53:12;;;;;;;21.23;11.18;;;;;;;-142.57;100.00;115900.28;5002199;28;20476;-88
2023/06/14 02:55:39;;;;;;;15.25;9.27;;;;;;;-142.57;100.00;115900.28;5033481;28;20068;-87
2023/06/14 02:58:06;;;;;;;15.68;9.30;;;;;;;-142.57;100.00;115900.28;5008087;28;20022;-89
2023/06/14 03:00:32;;;;;;;15.68;10.10;;;;;;;-142.57;100.00;115900.28;5042117;28;20032;-89
2023/06/14 03:03:01;;;;;;;13.98;9.20;;;;;;;-142.57;100.00;115900.28;5039956;28;20029;-89
2023/06/14 03:05:28;;;;;;;21.45;10.70;;;;;;;-142.57;100.00;115900.28;5038095;28;20022;-90
2023/06/14 03:07:54;;;;;;;19.95;11.23;;;;;;;-142.57;100.00;115900.28;5022316;28;20056;-87
2023/06/14 03:10:22;;;;;;;16.15;11.70;;;;;;;-142.57;100.00;115900.28;5031574;28;20498;-89
2023/06/14 03:12:48;;;;;;;15.30;11.30;;;;;;;-142.57;100.00;115900.28;4997462;28;20026;-88
2023/06/14 03:15:14;;;;;;;18.55;12.93;;;;;;;-142.57;100.00;115900.28;5014393;28;20490;-87
2023/06/14 03:17:49;;;;;;;16.73;11.55;;;;;;;-142.57;100.00;115900.28;5017911;28;20030;-88
2023/06/14 03:20:15;;;;;;;19.35;11.98;;;;;;;-142.57;100.00;115900.28;5048990;28;20026;-88
2023/06/14 03:22:41;;;;;;;17.17;11.23;;;;;;;-142.57;100.00;115900.28;5046931;28;20465;-88
2023/06/14 03:25:09;;;;;;;22.45;11.48;;;;;;;-142.57;100.00;115900.28;5027160;28;20087;-88
2023/06/14 03:27:37;;;;;;;19.50;11.80;;;;;;;-142.57;100.00;115900.28;5025744;28;20033;-87
2023/06/14 03:30:05;;;;;;;23.13;12.32;;;;;;;-142.57;100.00;115900.28;5009085;28;20052;-86
2023/06/14 03:32:33;;;;;;;21.95;11.95;;;;;;;-142.57;100.00;115900.28;4995761;28;20033;-88
2023/06/14 03:34:59;;;;;;;16.45;11.05;;;;;;;-142.57;100.00;115900.28;5033732;28;20038;-88
2023/06/14 03:37:25;;;;;;;16.08;11.45;;;;;;;-142.57;100.00;115900.28;5030722;28;20033;-88
2023/06/14 03:39:51;;;;;;;19.15;11.02;;;;;;;-142.57;100.00;115900.28;5049789;28;20494;-93
2023/06/14 03:42:22;;;;;;;17.70;11.48;;;;;;;-142.57;100.00;115900.28;5035755;28;20037;-91
2023/06/14 03:44:48;;;;;;;23.95;9.85;;;;;;;-142.57;100.00;115900.28;5019668;28;20132;-92
2023/06/14 03:47:16;;;;;;;20.27;9.95;;;;;;;-142.57;100.00;115900.28;5035782;28;20029;-91
2023/06/14 03:49:41;;;;;;;16.38;10.13;;;;;;;-142.57;100.00;115900.28;5019468;28;20037;-90
2023/06/14 03:52:07;;;;;;;21.50;9.52;;;;;;;-142.57;100.00;115900.28;5018883;28;20609;-87
2023/06/14 03:54:35;;;;;;;13.95;8.52;;;;;;;-142.57;100.00;115900.28;5017530;28;20049;-87
2023/06/14 03:57:00;;;;;;;11.20;7.43;;;;;;;-142.57;100.00;115900.28;5016298;28;20041;-88
2023/06/14 03:59:27;;;;;;;15.48;7.20;;;;;;;-142.57;100.00;115900.28;5030670;28;20117;-89
2023/06/14 04:01:54;;;;;;;15.13;7.13;;;;;;;-142.57;100.00;115900.28;4997169;28;20056;-87
2023/06/14 04:04:21;;;;;;;11.25;7.47;;;;;;;-142.57;100.00;115900.28;5048405;28;20081;-89
2023/06/14 04:06:48;;;;;;;17.73;7.32;;;;;;;-142.57;100.00;115900.28;5013269;28;20037;-86
2023/06/14 04:09:14;;;;;;;9.85;6.97;;;;;;;-142.57;100.00;115900.28;5028862;28;20034;-88
2023/06/14 04:11:41;;;;;;;11.70;7.03;;;;;;;-142.57;100.00;115900.28;5045560;28;20080;-87
2023/06/14 04:14:06;;;;;;;13.38;7.45;;;;;;;-142.57;100.00;115900.28;5037285;28;20026;-81
2023/06/14 04:16:32;;;;;;;13.85;7.28;;;;;;;-142.57;100.00;115900.28;5024478;28;20029;-84
2023/06/14 04:18:59;;;;;;;11.75;7.05;;;;;;;-142.57;100.00;115900.28;5030655;28;20037;-86
2023/06/14 04:21:27;;;;;;;15.43;7.82;;;;;;;-142.57;100.00;115900.28;5049076;28;20026;-87
2023/06/14 04:23:55;;;;;;;15.93;7.25;;;;;;;-142.57;100.00;115900.28;5017412;28;20076;-86
2023/06/14 04:26:23;;;;;;;13.98;7.80;;;;;;;-142.57;100.00;115900.28;5035700;28;20037;-91
2023/06/14 04:28:50;;;;;;;13.98;8.80;;;;;;;-142.57;100.00;115900.28;5050436;28;20045;-88
2023/06/14 04:31:18;;;;;;;12.18;8.00;;;;;;;-142.57;100.00;115900.28;5051880;28;20048;-89
2023/06/14 04:33:46;;;;;;;16.52;9.10;;;;;;;-142.57;100.00;115900.28;5020403;28;20041;-88
2023/06/14 04:36:17;;;;;;;15.38;8.85;;;;;;;-142.57;100.00;115900.28;5052279;28;20036;-88
2023/06/14 04:38:46;;;;;;;12.85;8.80;;;;;;;-142.57;100.00;115900.28;5036574;28;20131;-89
2023/06/14 04:41:13;;;;;;;19.20;9.95;;;;;;;-142.57;100.00;115900.28;5030905;28;20064;-88
2023/06/14 04:43:40;;;;;;;16.45;9.48;;;;;;;-142.57;100.00;115900.28;5026326;28;20076;-88
2023/06/14 04:46:14;;;;;;;17.05;9.05;;;;;;;-142.57;100.00;115900.28;5026648;28;20124;-90
2023/06/14 04:48:42;;;;;;;15.70;8.95;;;;;;;-142.57;100.00;115900.28;5007420;28;20045;-90
2023/06/14 04:51:09;;;;;;;16.30;9.60;;;;;;;-142.57;100.00;115900.28;5021557;28;20033;-87
2023/06/14 04:53:57;;;;;;;21.55;12.55;;;;;;;-142.57;100.00;115900.28;5021685;28;20044;-91
2023/06/14 04:56:26;;;;;;;26.30;13.10;;;;;;;-142.57;100.00;115900.28;5025316;28;20037;-86
2023/06/14 04:58:52;;;;;;;21.05;12.95;;;;;;;-142.57;100.00;115900.28;5044344;28;20026;-90
2023/06/14 05:01:20;;;;;;;19.88;12.88;;;;;;;-142.57;100.00;115900.28;5036701;28;20057;-91
2023/06/14 05:03:49;;;;;;;25.58;12.32;;;;;;;-142.57;100.00;115900.28;5043211;28;20033;-91
2023/06/14 05:06:18;;;;;;;26.50;15.75;;;;;;;-142.57;100.00;115900.28;5039217;28;20043;-91
2023/06/14 05:08:45;;;;;;;27.42;16.05;;;;;;;-142.57;100.00;115900.28;5033231;28;20101;-89
2023/06/14 05:11:11;;;;;;;19.50;14.15;;;;;;;-142.57;100.00;115900.28;5036298;28;20402;-90
2023/06/14 05:13:37;;;;;;;24.10;13.55;;;;;;;-142.57;100.00;115900.28;5019279;28;20061;-89
2023/06/14 05:16:03;;;;;;;23.08;14.25;;;;;;;-142.57;100.00;115900.28;5033208;28;20065;-87
2023/06/14 05:18:28;;;;;;;26.60;15.05;;;;;;;-142.57;100.00;115900.28;5027628;28;20034;-88
2023/06/14 05:20:54;;;;;;;26.48;17.55;;;;;;;-142.57;100.00;115900.28;5011717;28;20042;-89
2023/06/14 05:23:21;;;;;;;29.90;16.95;;;;;;;-142.57;100.00;115900.28;5030112;28;20064;-88
2023/06/14 05:25:47;;;;;;;20.73;13.65;;;;;;;-142.57;100.00;115900.28;5030057;28;20022;-88
2023/06/14 05:28:13;;;;;;;20.67;11.65;;;;;;;-142.57;100.00;115900.28;5010971;28;20060;-87
2023/06/14 05:30:44;;;;;;;24.60;11.30;;;;;;;-142.57;100.00;115900.28;5012635;28;20038;-89
2023/06/14 05:33:10;;;;;;;15.70;10.30;;;;;;;-142.57;100.00;115900.28;5027864;28;20041;-87
2023/06/14 05:35:48;;;;;;;14.35;9.60;;;;;;;-142.57;100.00;115900.28;4997103;28;20030;-90
2023/06/14 05:38:14;;;;;;;15.75;9.65;;;;;;;-142.57;100.00;115900.28;5017753;28;20044;-90
2023/06/14 05:40:42;;;;;;;12.73;9.57;;;;;;;-142.57;100.00;115900.28;5031658;28;20093;-91
2023/06/14 05:43:08;;;;;;;15.55;10.48;;;;;;;-142.57;100.00;115900.28;5014654;28;20541;-86
2023/06/14 05:45:34;;;;;;;17.15;9.70;;;;;;;-142.57;100.00;115900.28;5001655;28;20124;-88
2023/06/14 05:48:06;;;;;;;15.13;9.85;;;;;;;-142.57;100.00;115900.28;5049930;28;20390;-90
2023/06/14 05:50:32;;;;;;;;;;;;;;;-142.57;100.00;115900.28;5034937;28;20044;-87
2023/06/14 05:52:57;;;;;;;16.83;9.85;;;;;;;-142.57;100.00;115900.28;5053338;28;19917;-87
2023/06/14 05:55:24;;;;;;;15.60;10.25;;;;;;;-142.57;100.00;115900.28;5025090;28;20064;-89
2023/06/14 05:57:50;;;;;;;15.30;9.88;;;;;;;-142.57;100.00;115900.28;5040354;28;20099;-89
2023/06/14 06:00:16;;;;;;;14.65;10.77;;;;;;;-142.57;100.00;115900.28;5016457;28;20490;-89
2023/06/14 06:02:47;;;;;;;19.65;11.10;;;;;;;-142.57;100.00;115900.28;5003812;28;20034;-88
2023/06/14 06:05:15;;;;;;;20.27;11.52;;;;;;;-142.57;100.00;115900.28;5022137;28;20030;-88
2023/06/14 06:07:49;;;;;;;22.85;11.57;;;;;;;-142.57;100.00;115900.28;5020765;28;20046;-90
2023/06/14 06:10:20;;;;;;;18.33;11.02;;;;;;;-142.57;100.00;115900.28;5021747;28;20064;-90
2023/06/14 06:12:47;;;;;;;24.67;13.20;;;;;;;-142.57;100.00;115900.28;5003892;28;20037;-88
2023/06/14 06:15:12;;;;;;;29.58;14.05;;;;;;;-142.57;100.00;115900.28;5023150;28;20467;-89
2023/06/14 06:17:39;;;;;;;33.30;17.13;;;;;;;-142.57;100.00;115900.28;5022095;28;20067;-88
2023/06/14 06:20:08;;;;;;;37.45;19.20;;;;;;;-142.57;100.00;115900.28;5029653;28;20107;-88
2023/06/14 06:22:34;;;;;;;42.88;20.02;;;;;;;-142.57;100.00;115900.28;5018037;28;20460;-86
2023/06/14 06:25:00;;;;;;;36.22;20.65;;;;;;;-142.57;100.00;115900.28;5018341;28;20128;-86
2023/06/14 06:27:26;;;;;;;42.58;23.00;;;;;;;-142.57;100.00;115900.28;5026664;28;20084;-84
2023/06/14 06:29:51;;;;;;;36.72;22.00;;;;;;;-142.57;100.00;115900.28;4992095;28;20026;-84
2023/06/14 06:32:17;;;;;;;42.65;23.05;;;;;;;-142.57;100.00;115900.28;5020669;28;20076;-82
2023/06/14 06:34:44;;;;;;;34.08;21.83;;;;;;;-142.57;100.00;115900.28;5007173;28;20498;-87
2023/06/14 06:37:10;;;;;;;43.70;24.88;;;;;;;-142.57;100.00;115900.28;5003990;28;20038;-88
2023/06/14 06:39:38;;;;;;;37.03;22.42;;;;;;;-142.57;100.00;115900.28;5018424;28;20388;-88
2023/06/14 06:42:05;;;;;;;38.17;22.60;;;;;;;-142.57;100.00;115900.28;5020649;28;20034;-86
2023/06/14 06:44:37;;;;;;;33.53;19.67;;;;;;;-142.57;100.00;115900.28;5021888;28;20115;-89
2023/06/14 06:47:04;;;;;;;27.98;17.80;;;;;;;-142.57;100.00;115900.28;5020103;28;20046;-85
2023/06/14 06:49:31;;;;;;;30.00;18.02;;;;;;;-142.57;100.00;115900.28;5039466;28;20078;-84
2023/06/14 06:52:05;;;;;;;29.67;17.30;;;;;;;-142.57;100.00;115900.28;5019370;28;20367;-89
2023/06/14 06:54:32;;;;;;;28.20;18.15;;;;;;;-142.57;100.00;115900.28;5020624;28;20037;-89
2023/06/14 06:57:04;;;;;;;25.23;17.02;;;;;;;-142.57;100.00;115900.28;5028019;28;20036;-88
2023/06/14 06:59:30;;;;;;;31.58;17.15;;;;;;;-142.57;100.00;115900.28;5016679;28;20046;-86
2023/06/14 07:01:55;;;;;;;28.60;17.98;;;;;;;-142.57;100.00;115900.28;5004405;28;20118;-88
2023/06/14 07:04:21;;;;;;;29.58;17.65;;;;;;;-142.57;100.00;115900.28;5024210;23;20487;-87
2023/06/14 07:06:48;;;;;;;33.92;17.55;;;;;;;-142.57;100.00;115900.28;5018318;28;20034;-87
2023/06/14 07:09:15;;;;;;;41.22;17.33;;;;;;;-142.57;100.00;115900.28;5000440;28;20075;-88
2023/06/14 07:11:45;;;;;;;33.28;15.82;;;;;;;-142.57;100.00;115900.28;5011391;28;20469;-88
2023/06/14 07:14:11;;;;;;;30.67;15.48;;;;;;;-142.57;100.00;115900.28;4999157;28;20539;-88
2023/06/14 07:16:38;;;;;;;29.23;15.48;;;;;;;-142.57;100.00;115900.28;4989741;28;20033;-88
2023/06/14 07:19:04;;;;;;;26.40;15.90;;;;;;;-142.57;100.00;115900.28;4991516;28;20107;-87
2023/06/14 07:21:30;;;;;;;28.38;15.40;;;;;;;-142.57;100.00;115900.28;5015580;28;20025;-89
2023/06/14 07:23:56;;;;;;;27.67;15.85;;;;;;;-142.57;100.00;115900.28;4997843;28;20060;-87
2023/06/14 07:26:22;;;;;;;23.63;16.52;;;;;;;-142.57;100.00;115900.28;4996330;28;20041;-89
2023/06/14 07:28:49;;;;;;;29.83;15.50;;;;;;;-142.57;100.00;115900.28;5021567;28;20574;-89
2023/06/14 07:31:16;;;;;;;27.77;15.48;;;;;;;-142.57;100.00;115900.28;5029725;28;20022;-87
2023/06/14 07:33:42;;;;;;;20.50;14.30;;;;;;;-142.57;100.00;115900.28;5026100;28;20075;-87
2023/06/14 07:36:08;;;;;;;22.50;13.95;;;;;;;-142.57;100.00;115900.28;5000081;28;20084;-87
2023/06/14 07:38:34;;;;;;;24.13;11.88;;;;;;;-142.57;100.00;115900.28;4982269;28;20191;-88
2023/06/14 07:41:00;;;;;;;20.48;12.65;;;;;;;-142.57;100.00;115900.28;5002010;28;20022;-89
2023/06/14 07:43:26;;;;;;;22.40;13.10;;;;;;;-142.57;100.00;115900.28;5000829;28;20046;-87
2023/06/14 07:45:51;;;;;;;21.42;13.27;;;;;;;-142.57;100.00;115900.28;5014867;28;20057;-84
2023/06/14 07:48:18;;;;;;;22.77;12.32;;;;;;;-142.57;100.00;115900.28;5008501;28;20053;-90
2023/06/14 07:50:44;;;;;;;20.95;14.18;;;;;;;-142.57;100.00;115900.28;5021016;28;20030;-91
2023/06/14 07:53:09;;;;;;;24.88;13.85;;;;;;;-142.57;100.00;115900.28;5021801;28;20046;-88
2023/06/14 07:55:36;;;;;;;25.67;15.80;;;;;;;-142.57;100.00;115900.28;5022452;28;20037;-87
2023/06/14 07:58:03;;;;;;;28.58;15.77;;;;;;;-142.57;100.00;115900.28;5021631;28;20042;-88
2023/06/14 08:00:30;;;;;;;23.17;15.00;;;;;;;-142.57;100.00;115900.28;5003925;28;20513;-88
2023/06/14 08:02:59;;;;;;;26.67;16.48;;;;;;;-142.57;100.00;115900.28;5007001;28;20042;-88
2023/06/14 08:05:26;;;;;;;26.42;15.90;;;;;;;-142.57;100.00;115900.28;4982311;28;20085;-89
2023/06/14 08:07:52;;;;;;;17.25;11.57;;;;;;;-142.57;100.00;115900.28;4981199;28;20132;-87
2023/06/14 08:10:18;;;;;;;22.35;15.10;;;;;;;-142.57;100.00;115900.28;4966958;28;20038;-84
2023/06/14 08:12:49;;;;;;;29.23;16.45;;;;;;;-142.57;100.00;115900.28;5004411;28;20046;-90
2023/06/14 08:15:20;;;;;;;25.00;15.77;;;;;;;-142.57;100.00;115900.28;5005346;28;20054;-87
2023/06/14 08:17:46;;;;;;;31.77;16.33;;;;;;;-142.57;100.00;115900.28;4986951;28;20172;-85
2023/06/14 08:20:13;;;;;;;26.75;15.35;;;;;;;-142.57;100.00;115900.28;4994003;28;20027;-85
2023/06/14 08:22:42;;;;;;;25.33;15.60;;;;;;;-142.57;100.00;115900.28;5000460;28;20128;-86
2023/06/14 08:25:08;;;;;;;27.17;17.60;;;;;;;-142.57;100.00;115900.28;5010546;28;20038;-84
2023/06/14 08:27:42;;;;;;;22.67;15.75;;;;;;;-142.57;100.00;115900.28;4989882;28;20042;-86
2023/06/14 08:30:11;;;;;;;25.95;16.40;;;;;;;-142.57;100.00;115900.28;4969530;28;20109;-84
2023/06/14 08:32:39;;;;;;;29.98;17.08;;;;;;;-142.57;100.00;115900.28;5000829;28;20045;-85
2023/06/14 08:35:07;;;;;;;33.53;19.63;;;;;;;-142.57;100.00;115900.28;5004743;28;20054;-85
2023/06/14 08:37:41;;;;;;;32.38;22.33;;;;;;;-142.57;100.00;115900.28;4981312;28;20054;-84
2023/06/14 08:40:12;;;;;;;;;;;;;;;-142.57;100.00;115900.28;5000680;28;20110;-87
2023/06/14 08:42:42;;;;;;;36.35;21.67;;;;;;;-142.57;100.00;115900.28;4984206;28;20312;-87
2023/06/14 08:45:08;;;;;;;34.42;22.52;;;;;;;-142.57;100.00;115900.28;5010196;28;20125;-85
2023/06/14 08:47:36;;;;;;;43.28;24.05;;;;;;;-142.57;100.00;115900.28;5015203;28;20500;-84
2023/06/14 08:50:04;;;;;;;37.75;22.60;;;;;;;-142.57;100.00;115900.28;5011778;28;20034;-84
2023/06/14 08:52:40;;;;;;;33.83;22.48;;;;;;;-142.57;100.00;115900.28;5003090;28;20030;-85
2023/06/14 08:55:08;;;;;;;37.50;22.08;;;;;;;-142.57;100.00;115900.28;5011630;28;20034;-83
2023/06/14 08:57:37;;;;;;;38.35;22.88;;;;;;;-142.57;100.00;115900.28;5004175;28;20026;-81
2023/06/14 09:00:11;;;;;;;35.05;22.20;;;;;;;-142.57;100.00;115900.28;5003135;28;20045;-83
2023/06/14 09:02:38;;;;;;;35.13;23.65;;;;;;;-142.57;100.00;115900.28;5013156;28;20524;-86
2023/06/14 09:05:03;;;;;;;38.25;22.95;;;;;;;-142.57;100.00;115900.28;5006829;28;20034;-88
2023/06/14 09:07:29;;;;;;;36.20;23.15;;;;;;;-142.57;100.00;115900.28;5001298;28;20096;-85
2023/06/14 09:10:12;;;;;;;38.72;23.52;;;;;;;-142.57;100.00;115900.28;4978871;28;20058;-88
2023/06/14 09:12:39;;;;;;;38.63;22.88;;;;;;;-142.57;100.00;115900.28;4995682;28;20397;-87
2023/06/14 09:15:08;;;;;;;28.00;16.80;;;;;;;-142.57;100.00;115900.28;5009540;28;20030;-89
2023/06/14 09:17:37;;;;;;;30.85;17.33;;;;;;;-142.57;100.00;115900.28;5015539;28;20034;-86
2023/06/14 09:20:06;;;;;;;32.63;17.42;;;;;;;-142.57;100.00;115900.28;4997394;28;20045;-86
2023/06/14 09:22:33;;;;;;;24.52;17.98;;;;;;;-142.57;100.00;115900.28;5014401;28;20122;-90
2023/06/14 09:24:59;;;;;;;24.77;17.85;;;;;;;-142.57;100.00;115900.28;4996830;28;20388;-87
2023/06/14 09:27:27;;;;;;;36.05;19.85;;;;;;;-142.57;100.00;115900.28;4997518;28;20054;-87
2023/06/14 09:29:53;;;;;;;28.60;18.00;;;;;;;-142.57;100.00;115900.28;4997930;28;20033;-87
2023/06/14 09:32:20;;;;;;;35.67;17.92;;;;;;;-142.57;100.00;115900.28;4997310;28;20040;-87
2023/06/14 09:34:46;;;;;;;28.05;17.33;;;;;;;-142.57;100.00;115900.28;4982675;28;20042;-86
2023/06/14 09:37:11;;;;;;;23.77;14.30;;;;;;;-142.57;100.00;115900.28;5018745;28;20537;-89
2023/06/14 09:39:52;;;;;;;23.05;12.85;;;;;;;-142.57;100.00;115900.28;5002168;28;20052;-86
2023/06/14 09:42:22;;;;;;;24.02;11.18;;;;;;;-142.57;100.00;115900.28;5016443;28;20034;-86
2023/06/14 09:44:52;;;;;;;18.33;11.90;;;;;;;-142.57;100.00;115900.28;5003382;28;20396;-88
2023/06/14 09:47:18;;;;;;;16.27;10.35;;;;;;;-142.57;100.00;115900.28;5003692;28;20104;-88
2023/06/14 09:49:45;;;;;;;13.35;9.85;;;;;;;-142.57;100.00;115900.28;5019521;28;20427;-87
2023/06/14 09:52:16;;;;;;;14.13;10.57;;;;;;;-142.57;100.00;115900.28;5018381;28;20388;-88
2023/06/14 09:54:43;;;;;;;16.45;11.02;;;;;;;-142.57;100.00;115900.28;5002062;28;20030;-91
2023/06/14 09:57:14;;;;;;;20.00;13.02;;;;;;;-142.57;100.00;115900.28;5017991;28;20037;-88
2023/06/14 09:59:42;;;;;;;17.17;11.52;;;;;;;-142.57;100.00;115900.28;5019129;28;20046;-86
2023/06/14 10:02:28;;;;;;;18.35;12.63;;;;;;;-142.57;100.00;115900.28;5020736;28;20025;-88
2023/06/14 10:05:06;;;;;;;18.80;12.05;;;;;;;-142.57;100.00;115900.28;5002526;28;20033;-88
2023/06/14 10:07:59;;;;;;;23.00;14.40;;;;;;;-142.57;100.00;115900.28;5022537;28;20041;-90
2023/06/14 10:10:25;;;;;;;19.63;13.30;;;;;;;-142.57;100.00;115900.28;5005770;28;20037;-90
2023/06/14 10:12:51;;;;;;;23.13;14.98;;;;;;;-142.57;100.00;115900.28;5002595;28;20034;-87
2023/06/14 10:15:44;;;;;;;21.15;15.02;;;;;;;-142.57;100.00;115900.28;4998238;28;20121;-87
2023/06/14 10:18:10;;;;;;;;;;;;;;;-142.57;100.00;115900.28;4967387;28;20118;-88
2023/06/14 10:20:45;;;;;;;24.95;17.20;;;;;;;-142.57;100.00;115900.28;5001234;28;19914;-87
2023/06/14 10:23:22;;;;;;;21.05;17.02;;;;;;;-142.57;100.00;115900.28;5001413;28;20089;-89
2023/06/14 10:25:56;;;;;;;25.58;18.13;;;;;;;-142.57;100.00;115900.28;4987512;28;20042;-86
2023/06/14 10:28:24;;;;;;;28.77;19.92;;;;;;;-142.57;100.00;115900.28;5006515;28;20046;-85
2023/06/14 10:31:09;;;;;;;29.70;19.90;;;;;;;-142.57;100.00;115900.28;5004225;28;20034;-86
2023/06/14 10:33:55;;;;;;;30.67;21.60;;;;;;;-142.57;100.00;115900.28;5001125;28;20034;-87
2023/06/14 10:36:34;;;;;;;27.85;20.27;;;;;;;-142.57;100.00;115900.28;5007408;28;20043;-87
2023/06/14 10:39:04;;;;;;;28.63;20.98;;;;;;;-142.57;100.00;115900.28;5005541;28;20038;-86
2023/06/14 10:41:31;;;;;;;26.80;20.80;;;;;;;-142.57;100.00;115900.28;5004369;28;20427;-86
2023/06/14 10:44:12;;;;;;;28.10;20.77;;;;;;;-142.57;100.00;115900.28;4991327;28;20113;-85
2023/06/14 10:46:49;;;;;;;27.60;20.30;;;;;;;-142.57;100.00;115900.28;5007562;28;20453;-86
2023/06/14 10:49:19;;;;;;;30.15;21.25;;;;;;;-142.57;100.00;115900.28;5020932;28;20260;-86
2023/06/14 10:51:51;;;;;;;34.10;21.75;;;;;;;-142.57;100.00;115900.28;5020173;28;20053;-87
2023/06/14 10:54:25;;;;;;;31.38;21.83;;;;;;;-142.57;100.00;115900.28;5020958;28;20033;-83
2023/06/14 10:56:52;;;;;;;26.75;21.10;;;;;;;-142.57;100.00;115900.28;4986732;28;20072;-85